Time;durP1;ratioP1;P1;durP2;ratioP2;P2;SDS_P1;SDS_P2;PMS_P1;PMS_P2;Temp;Humidity;BMP_temperature;BMP_pressure;BME280_temperature;BME280_humidity;BME280_pressure;Samples;Min_cycle;Max_cycle;Signal;HPM_P1;HPM_P2
2022/04/09 00:01:41;;;;;;;7.40;2.10;;;7.40;98.00;;;;;;6167170;23;20438;-83
2022/04/09 00:04:16;;;;;;;5.80;2.67;;;7.40;98.10;;;;;;6170945;23;20434;-83
2022/04/09 00:06:55;;;;;;;3.60;2.30;;;7.30;98.10;;;;;;6169957;23;20446;-83
2022/04/09 00:09:25;;;;;;;10.60;3.00;;;7.40;98.20;;;;;;6159676;23;20407;-82
2022/04/09 00:11:58;;;;;;;4.60;2.10;;;7.40;98.40;;;;;;6170910;23;20419;-83
2022/04/09 00:14:36;;;;;;;5.97;2.30;;;7.30;98.50;;;;;;6169176;23;21211;-85
2022/04/09 00:17:09;;;;;;;5.23;2.30;;;7.30;98.50;;;;;;6166660;23;20473;-82
2022/04/09 00:19:43;;;;;;;5.40;2.43;;;7.30;98.50;;;;;;6155612;23;20403;-83
2022/04/09 00:22:12;;;;;;;8.30;2.30;;;7.40;98.70;;;;;;6155189;23;20425;-83
2022/04/09 00:24:39;;;;;;;6.67;2.30;;;7.30;99.10;;;;;;6154096;23;20418;-83
2022/04/09 00:27:08;;;;;;;6.33;2.13;;;7.30;98.70;;;;;;6154788;23;20456;-84
2022/04/09 00:29:39;;;;;;;7.70;2.43;;;7.40;98.80;;;;;;6156306;23;20415;-82
2022/04/09 00:32:07;;;;;;;3.70;2.30;;;7.30;98.70;;;;;;6155453;23;20429;-82
2022/04/09 00:34:37;;;;;;;6.87;2.70;;;7.30;98.90;;;;;;6154423;23;20418;-83
2022/04/09 00:37:08;;;;;;;5.07;2.13;;;7.30;99.00;;;;;;6157176;23;20434;-83
2022/04/09 00:39:40;;;;;;;5.90;2.50;;;7.20;99.10;;;;;;6157790;23;20434;-83
2022/04/09 00:42:17;;;;;;;4.20;2.10;;;7.30;99.30;;;;;;6169728;23;20429;-82
2022/04/09 00:44:46;;;;;;;5.83;2.30;;;7.30;99.20;;;;;;6156456;23;20495;-84
2022/04/09 00:47:19;;;;;;;4.20;2.90;;;7.30;99.20;;;;;;6166817;23;20453;-84
2022/04/09 00:49:47;;;;;;;4.30;2.93;;;7.30;99.30;;;;;;6154854;23;20731;-82
2022/04/09 00:52:15;;;;;;;5.53;2.60;;;7.30;99.40;;;;;;6155401;23;20411;-82
2022/04/09 00:54:44;;;;;;;5.70;2.33;;;7.30;99.40;;;;;;6158134;23;20422;-84
2022/04/09 00:57:18;;;;;;;7.90;4.30;;;7.30;99.40;;;;;;6157392;23;20442;-85
2022/04/09 00:59:49;;;;;;;8.20;2.80;;;7.30;99.50;;;;;;6133806;23;20421;-83
2022/04/09 01:02:21;;;;;;;10.60;3.10;;;7.30;99.80;;;;;;6156371;23;20418;-85
2022/04/09 01:04:58;;;;;;;5.67;2.37;;;7.20;99.70;;;;;;6157602;23;20516;-83
2022/04/09 01:07:29;;;;;;;5.10;1.90;;;7.20;99.90;;;;;;6154352;23;20497;-82
2022/04/09 01:09:56;;;;;;;7.37;3.37;;;7.20;99.90;;;;;;6136380;23;20477;-83
2022/04/09 01:12:27;;;;;;;6.10;2.53;;;7.20;99.90;;;;;;6162299;23;20420;-84
2022/04/09 01:14:56;;;;;;;5.30;2.27;;;7.10;99.90;;;;;;6161836;23;20413;-83
2022/04/09 01:17:36;;;;;;;9.50;2.53;;;7.00;99.90;;;;;;6162147;23;20438;-83
2022/04/09 01:20:22;;;;;;;13.10;2.80;;;7.00;99.90;;;;;;6159111;23;20402;-83
2022/04/09 01:22:51;;;;;;;3.60;2.10;;;7.00;99.90;;;;;;6158342;23;20422;-83
2022/04/09 01:25:21;;;;;;;5.53;2.77;;;6.90;99.90;;;;;;6185669;23;20500;-82
2022/04/09 01:27:49;;;;;;;4.73;2.43;;;6.90;99.90;;;;;;6184117;23;20450;-82
2022/04/09 01:30:17;;;;;;;6.60;2.83;;;6.90;99.90;;;;;;6159415;23;20409;-83
2022/04/09 01:32:51;;;;;;;5.50;2.50;;;6.90;99.90;;;;;;6161960;23;20426;-83
2022/04/09 01:35:21;;;;;;;6.60;2.20;;;6.90;99.90;;;;;;6161610;23;20417;-83
2022/04/09 01:37:51;;;;;;;6.53;2.40;;;6.90;99.90;;;;;;6160631;23;20469;-81
2022/04/09 01:40:26;;;;;;;5.43;2.30;;;6.90;99.90;;;;;;6187204;23;20423;-83
2022/04/09 01:42:54;;;;;;;6.63;3.00;;;6.90;99.90;;;;;;6159445;23;20503;-83
2022/04/09 01:45:27;;;;;;;17.80;2.83;;;6.90;99.90;;;;;;6186591;23;21007;-83
2022/04/09 01:47:58;;;;;;;7.90;2.40;;;6.80;99.90;;;;;;6161366;23;20469;-83
2022/04/09 01:50:28;;;;;;;6.97;1.90;;;6.80;99.90;;;;;;6184688;23;20410;-83
2022/04/09 01:52:56;;;;;;;7.03;2.17;;;6.80;99.90;;;;;;6158993;23;20414;-83
2022/04/09 01:55:31;;;;;;;7.90;2.50;;;6.80;99.90;;;;;;6184725;23;20870;-83
2022/04/09 01:58:03;;;;;;;5.83;2.77;;;6.80;99.90;;;;;;6158711;23;20442;-88
2022/04/09 02:00:36;;;;;;;8.10;2.30;;;6.80;99.90;;;;;;6186706;23;20422;-82
2022/04/09 02:03:04;;;;;;;5.83;3.17;;;6.80;99.90;;;;;;6159247;23;20464;-84
2022/04/09 02:05:34;;;;;;;4.60;2.53;;;6.70;99.90;;;;;;6160097;23;20425;-82
2022/04/09 02:08:05;;;;;;;6.43;2.50;;;6.70;99.90;;;;;;6185298;23;20949;-81
2022/04/09 02:10:37;;;;;;;8.30;2.50;;;6.70;99.90;;;;;;6185706;23;20422;-81
2022/04/09 02:13:12;;;;;;;5.07;1.67;;;6.70;99.90;;;;;;6161139;23;20414;-82
2022/04/09 02:15:42;;;;;;;7.37;2.27;;;6.80;99.90;;;;;;6161840;23;20405;-82
2022/04/09 02:18:15;;;;;;;8.97;2.97;;;6.80;99.90;;;;;;6161711;23;20524;-81
2022/04/09 02:20:48;;;;;;;7.23;2.33;;;6.80;99.90;;;;;;6160520;23;20448;-82
2022/04/09 02:23:19;;;;;;;7.03;2.40;;;6.80;99.90;;;;;;6167889;23;20447;-85
2022/04/09 02:25:47;;;;;;;5.73;2.43;;;6.80;99.90;;;;;;6167094;23;20452;-82
2022/04/09 02:28:17;;;;;;;5.03;2.00;;;6.80;99.90;;;;;;6159996;23;20519;-81
2022/04/09 02:30:48;;;;;;;7.73;2.17;;;6.80;99.90;;;;;;6159829;23;20520;-82
2022/04/09 02:33:17;;;;;;;5.57;2.53;;;6.90;99.90;;;;;;6164951;23;20418;-81
2022/04/09 02:35:52;;;;;;;6.30;2.50;;;6.90;99.90;;;;;;6169175;23;20505;-83
2022/04/09 02:38:21;;;;;;;7.57;3.40;;;6.80;99.90;;;;;;6190939;23;20473;-82
2022/04/09 02:40:57;;;;;;;5.33;2.73;;;6.80;99.90;;;;;;6189063;23;20881;-82
2022/04/09 02:43:27;;;;;;;7.63;2.93;;;6.80;99.90;;;;;;6193832;23;20422;-82
2022/04/09 02:45:58;;;;;;;10.40;2.63;;;6.70;99.90;;;;;;6202872;23;20448;-83
2022/04/09 02:48:26;;;;;;;8.77;3.10;;;6.70;99.90;;;;;;6178890;23;20438;-84
2022/04/09 02:50:54;;;;;;;12.33;3.07;;;6.70;99.90;;;;;;6172927;23;21112;-82
2022/04/09 02:53:21;;;;;;;7.80;2.43;;;6.80;99.90;;;;;;6184762;23;20484;-81
2022/04/09 02:55:48;;;;;;;6.13;2.40;;;6.70;99.90;;;;;;6184310;23;20409;-80
2022/04/09 02:58:20;;;;;;;8.80;3.13;;;6.70;99.90;;;;;;6159611;23;20440;-81
2022/04/09 03:00:53;;;;;;;13.50;4.03;;;6.80;99.90;;;;;;6160617;23;20402;-83
2022/04/09 03:03:21;;;;;;;5.63;2.20;;;6.70;99.90;;;;;;6187331;23;20489;-84
2022/04/09 03:05:50;;;;;;;7.30;2.50;;;6.70;99.90;;;;;;6161521;23;20501;-84
2022/04/09 03:08:23;;;;;;;5.17;2.50;;;6.60;99.90;;;;;;6160043;23;21201;-81
2022/04/09 03:10:56;;;;;;;6.23;2.30;;;6.60;99.90;;;;;;6161182;23;20424;-82
2022/04/09 03:13:31;;;;;;;10.20;3.13;;;6.60;99.90;;;;;;6160574;23;20433;-82
2022/04/09 03:15:59;;;;;;;8.13;3.43;;;6.60;99.90;;;;;;6161168;23;20463;-83
2022/04/09 03:18:38;;;;;;;7.80;2.90;;;6.60;99.90;;;;;;6160610;23;20437;-83
2022/04/09 03:21:10;;;;;;;8.70;3.93;;;6.60;99.90;;;;;;6156912;23;20410;-82
2022/04/09 03:23:52;;;;;;;7.57;3.27;;;6.60;99.90;;;;;;6184410;23;20421;-82
2022/04/09 03:26:23;;;;;;;10.93;3.40;;;6.60;99.90;;;;;;6160081;23;20799;-81
2022/04/09 03:28:53;;;;;;;8.40;3.83;;;6.70;99.90;;;;;;6161940;23;20416;-82
2022/04/09 03:31:23;;;;;;;10.80;3.10;;;6.70;99.90;;;;;;6164726;23;20414;-83
2022/04/09 03:33:57;;;;;;;5.70;2.93;;;6.70;99.90;;;;;;6159236;23;20432;-82
2022/04/09 03:36:27;;;;;;;5.30;2.43;;;6.70;99.90;;;;;;6135601;23;20738;-84
2022/04/09 03:39:00;;;;;;;6.80;2.93;;;6.80;99.90;;;;;;6185703;23;20469;-83
2022/04/09 03:41:30;;;;;;;12.03;3.20;;;6.70;99.90;;;;;;6159418;23;20823;-81
2022/04/09 03:44:01;;;;;;;5.63;2.40;;;6.80;99.90;;;;;;6160004;23;20921;-82
2022/04/09 03:46:36;;;;;;;9.13;4.20;;;6.80;99.90;;;;;;6161200;23;20430;-83
2022/04/09 03:49:07;;;;;;;5.77;3.00;;;6.80;99.90;;;;;;6186150;23;20420;-83
2022/04/09 03:51:34;;;;;;;9.87;3.00;;;6.80;99.90;;;;;;6159738;23;20504;-81
2022/04/09 03:54:07;;;;;;;3.17;2.30;;;6.80;99.90;;;;;;6186501;23;20490;-81
2022/04/09 03:56:40;;;;;;;12.33;3.30;;;6.80;99.90;;;;;;6159104;23;20536;-82
2022/04/09 03:59:09;;;;;;;6.90;2.90;;;6.80;99.90;;;;;;6150977;23;20413;-83
2022/04/09 04:01:41;;;;;;;6.67;2.50;;;6.80;99.90;;;;;;6169467;23;20409;-82
2022/04/09 04:04:10;;;;;;;11.73;3.40;;;6.80;99.90;;;;;;6172505;23;20414;-82
2022/04/09 04:06:45;;;;;;;7.10;3.27;;;6.80;99.90;;;;;;6163429;23;20532;-83
2022/04/09 04:09:16;;;;;;;11.90;3.40;;;6.80;99.90;;;;;;6164089;23;20893;-83
2022/04/09 04:11:50;;;;;;;5.93;2.73;;;6.80;99.90;;;;;;6189878;23;20953;-83
2022/04/09 04:14:18;;;;;;;9.83;3.27;;;6.80;99.90;;;;;;6189614;23;20452;-84
2022/04/09 04:16:49;;;;;;;7.57;2.80;;;6.80;99.90;;;;;;6171036;23;20442;-82
2022/04/09 04:19:19;;;;;;;13.50;4.57;;;6.80;99.90;;;;;;6184684;23;20409;-84
2022/04/09 04:21:51;;;;;;;16.40;3.10;;;6.80;99.90;;;;;;6186425;23;20410;-86
2022/04/09 04:24:23;;;;;;;12.47;3.23;;;6.80;99.90;;;;;;6185518;23;20424;-84
2022/04/09 04:26:51;;;;;;;8.53;3.13;;;6.80;99.90;;;;;;6174110;23;20511;-83
2022/04/09 04:29:21;;;;;;;9.17;2.50;;;6.80;99.90;;;;;;6183809;23;20425;-86
2022/04/09 04:31:49;;;;;;;10.23;3.33;;;6.80;99.90;;;;;;6181071;23;20425;-83
2022/04/09 04:34:17;;;;;;;6.53;2.80;;;6.80;99.90;;;;;;6159382;23;20410;-81
2022/04/09 04:36:44;;;;;;;11.90;3.30;;;6.80;99.90;;;;;;6184739;23;20768;-82
2022/04/09 04:39:16;;;;;;;8.50;2.83;;;6.80;99.90;;;;;;6159817;23;20406;-82
2022/04/09 04:41:43;;;;;;;8.20;2.90;;;6.90;99.90;;;;;;6159457;23;20505;-81
2022/04/09 04:44:11;;;;;;;6.83;3.07;;;6.90;99.90;;;;;;6160254;23;20929;-82
2022/04/09 04:46:42;;;;;;;12.63;2.83;;;6.80;99.90;;;;;;6190092;23;20822;-81
2022/04/09 04:49:12;;;;;;;9.60;3.40;;;6.90;99.90;;;;;;6162626;23;20405;-84
2022/04/09 04:51:41;;;;;;;13.00;3.40;;;6.90;99.90;;;;;;6175429;23;20465;-85
2022/04/09 04:54:09;;;;;;;10.53;3.07;;;6.90;99.90;;;;;;6196960;23;20418;-82
2022/04/09 04:56:36;;;;;;;11.07;2.90;;;6.90;99.90;;;;;;6187263;23;20423;-83
2022/04/09 04:59:07;;;;;;;9.03;2.50;;;6.90;99.90;;;;;;6161040;23;20489;-82
2022/04/09 05:01:40;;;;;;;9.40;3.43;;;6.90;99.90;;;;;;6162005;23;20489;-82
2022/04/09 05:04:09;;;;;;;14.13;2.80;;;6.90;99.90;;;;;;6190729;23;20413;-82
2022/04/09 05:06:39;;;;;;;13.63;2.93;;;6.90;99.90;;;;;;6183142;23;20418;-83
2022/04/09 05:09:07;;;;;;;12.37;3.50;;;6.90;99.90;;;;;;6157576;23;20912;-82
2022/04/09 05:11:37;;;;;;;10.77;2.63;;;6.90;99.90;;;;;;6182965;23;20425;-83
2022/04/09 05:14:05;;;;;;;10.17;3.30;;;6.90;99.90;;;;;;6184216;23;20508;-82
2022/04/09 05:16:36;;;;;;;16.50;3.13;;;6.90;99.90;;;;;;6158675;23;20453;-83
2022/04/09 05:19:13;;;;;;;8.53;2.50;;;6.90;99.90;;;;;;6182636;23;20433;-82
2022/04/09 05:21:44;;;;;;;9.13;3.93;;;6.90;99.90;;;;;;6157403;23;20441;-81
2022/04/09 05:24:15;;;;;;;8.13;2.40;;;6.80;99.90;;;;;;6157986;23;20505;-82
2022/04/09 05:26:42;;;;;;;8.60;2.10;;;6.80;99.90;;;;;;6158244;23;20460;-81
2022/04/09 05:29:11;;;;;;;11.20;2.60;;;6.80;99.90;;;;;;6158602;23;20414;-83
2022/04/09 05:31:38;;;;;;;10.87;3.20;;;6.80;99.90;;;;;;6160298;23;20440;-81
2022/04/09 05:34:08;;;;;;;8.53;2.30;;;6.80;99.90;;;;;;6162136;23;20741;-84
2022/04/09 05:36:37;;;;;;;7.23;2.93;;;6.80;99.90;;;;;;6165894;23;20425;-86
2022/04/09 05:39:11;;;;;;;14.27;3.27;;;6.80;99.90;;;;;;6168067;23;20402;-82
2022/04/09 05:41:40;;;;;;;6.93;2.30;;;6.80;99.90;;;;;;6179261;23;20446;-82
2022/04/09 05:44:09;;;;;;;14.17;3.33;;;6.90;99.90;;;;;;6162250;23;20448;-83
2022/04/09 05:46:39;;;;;;;8.57;2.53;;;6.80;99.90;;;;;;6166708;23;20414;-83
2022/04/09 05:49:06;;;;;;;9.90;3.00;;;6.80;99.90;;;;;;6166067;23;20438;-85
2022/04/09 05:51:34;;;;;;;6.70;2.47;;;6.80;99.90;;;;;;6164392;23;20761;-86
2022/04/09 05:54:06;;;;;;;8.97;3.10;;;6.90;99.90;;;;;;6187729;23;20414;-82
2022/04/09 05:56:34;;;;;;;10.33;3.33;;;6.90;99.90;;;;;;6161887;23;20931;-82
2022/04/09 05:59:09;;;;;;;13.53;3.00;;;7.00;99.90;;;;;;6160837;23;20417;-83
2022/04/09 06:01:48;;;;;;;8.37;3.40;;;7.00;99.90;;;;;;6162796;23;20424;-82
2022/04/09 06:04:20;;;;;;;9.30;2.97;;;7.00;99.90;;;;;;6162600;23;20428;-82
2022/04/09 06:06:52;;;;;;;10.07;3.60;;;7.00;99.90;;;;;;6161698;23;20457;-82
2022/04/09 06:09:22;;;;;;;11.43;3.27;;;7.00;99.90;;;;;;6188823;23;20433;-82
2022/04/09 06:11:55;;;;;;;10.77;3.00;;;6.90;99.90;;;;;;6188015;23;20508;-82
2022/04/09 06:14:22;;;;;;;11.57;3.43;;;6.90;99.90;;;;;;6178583;23;20410;-81
2022/04/09 06:16:50;;;;;;;7.40;2.63;;;7.40;99.90;;;;;;6207650;23;20446;-81
2022/04/09 06:19:20;;;;;;;8.63;3.40;;;8.90;99.90;;;;;;6183249;23;20425;-83
2022/04/09 06:21:48;;;;;;;9.03;2.60;;;10.80;94.60;;;;;;6183041;23;20402;-86
2022/04/09 06:24:21;;;;;;;10.10;2.63;;;11.80;91.00;;;;;;6208285;23;20410;-82
2022/04/09 06:26:49;;;;;;;5.13;2.10;;;12.80;89.40;;;;;;6183260;23;20409;-83
2022/04/09 06:29:22;;;;;;;8.40;2.97;;;13.10;83.30;;;;;;6181908;23;20468;-85
2022/04/09 06:31:51;;;;;;;9.00;3.53;;;12.00;83.30;;;;;;6182670;23;20406;-85
2022/04/09 06:34:25;;;;;;;5.97;3.00;;;10.50;87.90;;;;;;6182006;23;20421;-84
2022/04/09 06:36:54;;;;;;;11.90;2.67;;;9.70;92.10;;;;;;6182645;23;20502;-86
2022/04/09 06:39:23;;;;;;;8.70;3.77;;;9.70;93.10;;;;;;6182084;23;20409;-86
2022/04/09 06:41:51;;;;;;;7.17;3.40;;;9.50;93.40;;;;;;6183334;23;20414;-85
2022/04/09 06:44:21;;;;;;;9.90;2.83;;;10.70;92.80;;;;;;6182816;23;20468;-84
2022/04/09 06:46:52;;;;;;;7.40;2.87;;;12.00;89.40;;;;;;6179198;23;20445;-84
2022/04/09 06:49:21;;;;;;;8.57;3.20;;;12.00;87.70;;;;;;6173466;23;20449;-85
2022/04/09 06:51:50;;;;;;;7.70;2.97;;;13.60;83.70;;;;;;6176289;23;20435;-86
2022/04/09 06:54:20;;;;;;;5.23;2.70;;;14.10;77.90;;;;;;6180621;23;20429;-83
2022/04/09 06:56:52;;;;;;;8.07;3.00;;;14.80;75.70;;;;;;6180734;23;20448;-85
2022/04/09 06:59:25;;;;;;;8.87;3.90;;;14.30;74.10;;;;;;6179966;23;20433;-85
2022/04/09 07:01:58;;;;;;;7.83;3.33;;;13.40;74.20;;;;;;6178358;23;20398;-81
2022/04/09 07:04:27;;;;;;;7.50;3.10;;;13.30;78.40;;;;;;6174445;23;20421;-83
2022/04/09 07:06:58;;;;;;;10.00;3.17;;;14.40;76.70;;;;;;6190633;23;20426;-84
2022/04/09 07:09:30;;;;;;;6.50;3.33;;;15.00;72.30;;;;;;6174745;23;20445;-85
2022/04/09 07:12:07;;;;;;;7.60;2.83;;;14.80;69.90;;;;;;6176561;23;20798;-85
2022/04/09 07:14:41;;;;;;;6.40;3.07;;;13.10;73.30;;;;;;6175654;23;20401;-86
2022/04/09 07:17:13;;;;;;;8.23;2.70;;;13.40;76.40;;;;;;6203995;23;20445;-85
2022/04/09 07:19:48;;;;;;;8.50;2.70;;;13.20;74.20;;;;;;6178879;23;20452;-83
2022/04/09 07:22:17;;;;;;;10.07;3.80;;;11.70;78.40;;;;;;6179521;23;21050;-85
2022/04/09 07:24:46;;;;;;;6.63;2.77;;;11.40;83.30;;;;;;6203418;23;20418;-84
2022/04/09 07:27:56;;;;;;;5.83;2.33;;;12.90;80.60;;;;;;6181093;23;20452;-87
2022/04/09 07:30:26;;;;;;;3.93;2.67;;;14.10;73.60;;;;;;6060779;23;20406;-84
2022/04/09 07:32:58;;;;;;;7.33;3.17;;;12.40;75.50;;;;;;6165104;23;20643;-85
2022/04/09 07:35:27;;;;;;;5.47;2.87;;;11.90;79.60;;;;;;6184097;23;20406;-86
2022/04/09 07:37:58;;;;;;;6.20;2.80;;;12.00;81.90;;;;;;6208125;23;20432;-85
2022/04/09 07:40:42;;;;;;;4.60;2.50;;;13.30;78.20;;;;;;6184751;23;20406;-83
2022/04/09 07:43:12;;;;;;;5.27;2.23;;;14.10;74.50;;;;;;6184930;23;20448;-84
2022/04/09 07:45:47;;;;;;;4.30;2.00;;;14.40;72.20;;;;;;6209668;23;20420;-83
2022/04/09 07:48:21;;;;;;;6.27;3.00;;;13.70;71.80;;;;;;6181368;23;20437;-86
2022/04/09 07:50:49;;;;;;;4.67;2.27;;;13.90;75.10;;;;;;6181487;23;20394;-86
2022/04/09 07:53:16;;;;;;;5.70;2.67;;;15.20;70.60;;;;;;6179533;23;20523;-88
2022/04/09 07:55:46;;;;;;;6.80;2.70;;;15.50;68.70;;;;;;6205861;23;20424;-85
2022/04/09 07:58:23;;;;;;;5.07;2.40;;;16.10;65.80;;;;;;6152241;23;20433;-84
2022/04/09 08:00:52;;;;;;;6.10;2.40;;;15.10;64.60;;;;;;6165378;23;20406;-82
2022/04/09 08:03:29;;;;;;;5.57;2.63;;;14.70;68.90;;;;;;6187295;23;20417;-84
2022/04/09 08:05:59;;;;;;;7.07;2.40;;;15.30;66.40;;;;;;6162370;23;20413;-85
2022/04/09 08:08:27;;;;;;;10.20;2.80;;;14.30;67.90;;;;;;6186731;23;20460;-86
2022/04/09 08:10:57;;;;;;;7.07;3.23;;;13.40;70.60;;;;;;6162910;23;20428;-86
2022/04/09 08:13:24;;;;;;;12.50;2.73;;;12.70;72.90;;;;;;6163420;23;20424;-83
2022/04/09 08:15:55;;;;;;;8.10;2.60;;;12.20;74.80;;;;;;6207674;23;20383;-86
2022/04/09 08:18:24;;;;;;;12.77;3.73;;;11.50;77.40;;;;;;6181829;23;20453;-85
2022/04/09 08:21:01;;;;;;;6.83;3.30;;;10.80;80.80;;;;;;6177484;23;20410;-85
2022/04/09 08:23:30;;;;;;;7.60;2.20;;;10.30;83.80;;;;;;6169632;23;20409;-84
2022/04/09 08:26:08;;;;;;;8.37;2.53;;;10.00;86.50;;;;;;6164048;23;20445;-83
2022/04/09 08:28:38;;;;;;;9.70;2.93;;;9.90;89.30;;;;;;6168876;23;20476;-84
2022/04/09 08:31:06;;;;;;;7.20;2.63;;;10.10;89.60;;;;;;6197608;23;20432;-86
2022/04/09 08:33:36;;;;;;;6.10;2.47;;;10.70;87.40;;;;;;6192259;23;20460;-84
2022/04/09 08:36:04;;;;;;;5.07;2.80;;;10.60;84.50;;;;;;6161319;23;20410;-86
2022/04/09 08:38:36;;;;;;;8.20;2.20;;;10.60;85.40;;;;;;6162130;23;20511;-85
2022/04/09 08:41:03;;;;;;;17.00;2.93;;;10.40;85.50;;;;;;6192108;23;20405;-83
2022/04/09 08:43:32;;;;;;;8.10;2.50;;;10.00;87.00;;;;;;6161428;23;20902;-85
2022/04/09 08:46:02;;;;;;;5.10;2.53;;;10.40;86.60;;;;;;6168795;23;20480;-87
2022/04/09 08:48:32;;;;;;;6.20;2.97;;;10.50;86.90;;;;;;6173346;23;20509;-85
2022/04/09 08:50:59;;;;;;;6.47;2.93;;;11.00;85.00;;;;;;6175545;23;20945;-88
2022/04/09 08:53:45;;;;;;;6.07;2.33;;;12.00;79.80;;;;;;6195742;23;20437;-88
2022/04/09 08:56:18;;;;;;;6.70;2.40;;;12.40;76.00;;;;;;6191098;23;20410;-85
2022/04/09 08:58:45;;;;;;;9.97;3.00;;;11.80;77.00;;;;;;6158590;23;20449;-86
2022/04/09 09:01:15;;;;;;;7.47;2.50;;;11.80;76.80;;;;;;6157603;23;20417;-83
2022/04/09 09:03:45;;;;;;;8.40;3.00;;;12.00;75.70;;;;;;6161058;23;20624;-85
2022/04/09 09:06:35;;;;;;;4.83;2.57;;;12.60;73.40;;;;;;6167916;23;20409;-87
2022/04/09 09:10:31;;;;;;;5.40;2.23;;;13.90;70.40;;;;;;6107963;23;20708;-84
2022/04/09 09:13:05;;;;;;;7.53;2.30;;;14.60;65.00;;;;;;6091067;23;21026;-85
2022/04/09 09:15:52;;;;;;;7.47;3.40;;;15.60;62.10;;;;;;6093103;23;20442;-84
2022/04/09 09:18:33;;;;;;;4.37;2.47;;;15.00;59.60;;;;;;6068796;23;20549;-82
2022/04/09 09:21:27;;;;;;;4.60;2.50;;;14.40;62.40;;;;;;6069567;23;20492;-84
2022/04/09 09:24:57;;;;;;;7.10;2.70;;;14.70;62.40;;;;;;6072635;23;20525;-82
2022/04/09 09:27:37;;;;;;;4.03;1.90;;;14.30;64.40;;;;;;5950047;24;20449;-84
2022/04/09 09:30:18;;;;;;;4.07;2.43;;;15.30;59.90;;;;;;6010858;23;20491;-84
2022/04/09 09:33:08;;;;;;;4.87;2.20;;;15.50;59.10;;;;;;6092074;23;20416;-86
2022/04/09 09:36:03;;;;;;;6.33;2.20;;;14.80;58.60;;;;;;6074641;23;20435;-85
2022/04/09 09:38:34;;;;;;;5.07;1.90;;;15.60;58.40;;;;;;6069412;23;20455;-83
2022/04/09 09:41:07;;;;;;;5.80;1.87;;;14.80;58.00;;;;;;6142239;23;20434;-84
2022/04/09 09:44:01;;;;;;;3.10;2.13;;;14.00;59.20;;;;;;6159201;23;20409;-85
2022/04/09 09:47:07;;;;;;;3.90;2.03;;;13.20;61.30;;;;;;6159296;23;20433;-82
2022/04/09 09:50:03;;;;;;;5.73;2.80;;;12.30;64.20;;;;;;6183761;23;20929;-82
2022/04/09 09:52:36;;;;;;;6.10;1.77;;;11.80;65.60;;;;;;6159821;23;20410;-84
2022/04/09 09:55:24;;;;;;;7.20;2.03;;;11.60;66.60;;;;;;6158270;23;20901;-83
2022/04/09 09:57:59;;;;;;;4.20;1.77;;;11.60;64.10;;;;;;6171391;23;20445;-83
2022/04/09 10:00:48;;;;;;;5.00;2.13;;;11.40;64.50;;;;;;6166977;23;20410;-82
2022/04/09 10:03:34;;;;;;;3.87;1.70;;;11.40;66.30;;;;;;6155814;23;20460;-84
2022/04/09 10:09:19;;;;;;;3.00;1.50;;;12.60;61.70;;;;;;6183083;23;21036;-83
2022/04/09 10:11:54;;;;;;;6.40;2.33;;;13.00;59.30;;;;;;6157560;23;20418;-83
2022/04/09 10:14:42;;;;;;;10.13;2.07;;;13.50;57.90;;;;;;6159223;23;20418;-83
2022/04/09 10:17:30;;;;;;;4.70;2.27;;;13.30;56.70;;;;;;6162151;23;20430;-83
2022/04/09 10:20:08;;;;;;;5.57;1.80;;;13.10;57.00;;;;;;6182448;23;20506;-83
2022/04/09 10:22:58;;;;;;;3.30;2.17;;;13.00;57.40;;;;;;6162243;23;20428;-83
2022/04/09 10:25:41;;;;;;;3.77;2.20;;;13.40;57.60;;;;;;6160091;23;20417;-83
2022/04/09 10:28:38;;;;;;;5.17;1.63;;;13.30;57.50;;;;;;6182515;23;20433;-81
2022/04/09 10:31:23;;;;;;;3.40;1.80;;;12.80;56.90;;;;;;6184852;23;21273;-82
2022/04/09 10:34:01;;;;;;;6.63;2.43;;;12.90;56.30;;;;;;6184143;23;20425;-83
2022/04/09 10:37:04;;;;;;;3.70;1.90;;;13.00;56.20;;;;;;6183163;23;20501;-82
2022/04/09 10:39:53;;;;;;;8.13;3.33;;;13.00;56.10;;;;;;6185296;23;20547;-83
2022/04/09 10:42:56;;;;;;;10.80;2.67;;;12.40;57.20;;;;;;6159677;23;20398;-86
2022/04/09 10:46:35;;;;;;;4.23;2.13;;;12.40;58.20;;;;;;6181125;23;20751;-82
2022/04/09 10:49:26;;;;;;;6.60;2.00;;;13.20;56.20;;;;;;6184712;23;20451;-84
2022/04/09 10:52:37;;;;;;;3.53;1.70;;;14.00;54.60;;;;;;6159414;23;20414;-83
2022/04/09 10:55:53;;;;;;;2.50;1.87;;;14.60;53.40;;;;;;6184309;23;20476;-82
2022/04/09 10:59:03;;;;;;;5.93;2.50;;;14.80;50.70;;;;;;6180348;23;20426;-85
2022/04/09 11:01:46;;;;;;;4.03;2.30;;;14.70;49.90;;;;;;6144638;23;20421;-83
2022/04/09 11:04:35;;;;;;;3.93;1.83;;;14.40;50.60;;;;;;6181047;23;20404;-84
2022/04/09 11:07:35;;;;;;;4.27;2.20;;;13.80;50.50;;;;;;6155065;23;20430;-83
2022/04/09 11:10:31;;;;;;;;;;;;;;;;;;;;;
2022/04/09 11:13:03;;;;;;;5.60;2.40;;;14.30;51.10;;;;;;6182635;23;20418;-83
2022/04/09 11:15:33;;;;;;;3.90;2.10;;;14.40;50.00;;;;;;6185932;23;20414;-81
2022/04/09 11:18:41;;;;;;;4.80;2.27;;;14.50;50.30;;;;;;6160311;23;20832;-81
2022/04/09 11:21:22;;;;;;;2.10;1.83;;;14.90;49.10;;;;;;6158119;23;20441;-85
2022/04/09 11:24:06;;;;;;;3.07;2.23;;;14.60;48.20;;;;;;6157605;23;20413;-84
2022/04/09 11:27:16;;;;;;;6.07;2.40;;;14.70;49.60;;;;;;6157141;23;20429;-84
2022/04/09 11:29:46;;;;;;;5.80;2.30;;;14.80;50.10;;;;;;6156118;23;20516;-83
2022/04/09 11:32:57;;;;;;;3.23;2.07;;;15.10;50.70;;;;;;6182099;23;20512;-84
2022/04/09 11:35:47;;;;;;;3.30;2.00;;;15.70;50.90;;;;;;6156735;23;20441;-82
2022/04/09 11:38:41;;;;;;;5.27;2.20;;;15.70;47.60;;;;;;6155988;23;20433;-82
2022/04/09 11:41:44;;;;;;;2.60;1.90;;;15.60;46.80;;;;;;6145312;23;20436;-84
2022/04/09 11:44:28;;;;;;;2.10;1.80;;;15.60;47.10;;;;;;6155829;23;20417;-84
2022/04/09 11:47:27;;;;;;;3.17;2.43;;;16.00;47.10;;;;;;6153654;23;20422;-83
2022/04/09 11:50:03;;;;;;;3.77;1.93;;;16.50;46.50;;;;;;6148319;23;20453;-83
2022/04/09 11:52:40;;;;;;;2.03;1.67;;;15.90;47.40;;;;;;6149691;23;20829;-83
2022/04/09 11:55:20;;;;;;;;;;;;;;;;;;;;;
2022/04/09 11:58:00;;;;;;;2.63;1.70;;;14.60;45.70;;;;;;6172840;23;20450;-81
2022/04/09 12:00:37;;;;;;;2.90;1.50;;;14.00;45.30;;;;;;6147548;23;20512;-81
2022/04/09 12:03:10;;;;;;;2.67;1.80;;;13.80;46.60;;;;;;6147327;23;20968;-81
2022/04/09 12:05:51;;;;;;;5.00;2.30;;;13.90;48.60;;;;;;6150397;23;20435;-82
2022/04/09 12:08:23;;;;;;;3.50;2.03;;;14.00;50.70;;;;;;6149982;23;20444;-82
2022/04/09 12:11:11;;;;;;;4.20;2.40;;;13.20;52.50;;;;;;6151817;23;20424;-81
2022/04/09 12:13:42;;;;;;;2.70;2.07;;;12.60;55.10;;;;;;6149105;23;20410;-83
2022/04/09 12:16:17;;;;;;;2.73;2.20;;;12.30;56.90;;;;;;6148588;23;20410;-81
2022/04/09 12:18:51;;;;;;;5.80;1.90;;;12.30;58.00;;;;;;6183896;23;20424;-82
2022/04/09 12:21:23;;;;;;;3.30;2.20;;;12.40;58.20;;;;;;6151249;23;20410;-85
2022/04/09 12:24:10;;;;;;;4.67;1.97;;;12.80;58.20;;;;;;6175948;23;20426;-83
2022/04/09 12:26:55;;;;;;;4.03;2.00;;;13.40;55.30;;;;;;6177202;23;20438;-83
2022/04/09 12:29:26;;;;;;;3.57;2.07;;;14.00;53.90;;;;;;6146376;23;20482;-82
2022/04/09 12:32:19;;;;;;;4.63;1.83;;;14.30;53.20;;;;;;6147088;23;20445;-81
2022/04/09 12:34:59;;;;;;;5.30;2.00;;;14.40;52.70;;;;;;6145257;23;20505;-83
2022/04/09 12:37:28;;;;;;;4.10;2.10;;;14.50;53.10;;;;;;6144365;23;20621;-83
2022/04/09 12:40:22;;;;;;;2.00;1.80;;;15.10;53.60;;;;;;6145028;23;20417;-83
2022/04/09 12:42:51;;;;;;;4.60;3.00;;;15.20;53.00;;;;;;6174055;23;20483;-82
2022/04/09 12:45:25;;;;;;;4.57;2.20;;;14.90;51.50;;;;;;6145665;23;20456;-82
2022/04/09 12:48:07;;;;;;;2.40;1.70;;;14.30;50.80;;;;;;6143326;23;20464;-82
2022/04/09 12:50:52;;;;;;;2.57;1.80;;;14.10;51.50;;;;;;6147327;23;20445;-83
2022/04/09 12:53:25;;;;;;;2.83;2.00;;;14.20;51.90;;;;;;6147686;23;20504;-82
2022/04/09 12:56:06;;;;;;;2.10;1.60;;;14.20;50.90;;;;;;6173886;23;20406;-84
2022/04/09 12:58:46;;;;;;;4.80;1.80;;;14.30;51.30;;;;;;6151115;23;20434;-82
2022/04/09 13:01:23;;;;;;;3.10;1.53;;;14.40;51.00;;;;;;6149672;23;20398;-84
2022/04/09 13:04:10;;;;;;;3.43;2.00;;;14.40;50.80;;;;;;6150939;23;21177;-83
2022/04/09 13:06:44;;;;;;;2.10;1.77;;;14.70;50.70;;;;;;6146523;23;20493;-82
2022/04/09 13:09:15;;;;;;;2.20;1.90;;;15.00;50.40;;;;;;6172991;23;20467;-83
2022/04/09 13:11:52;;;;;;;3.03;1.77;;;15.20;49.90;;;;;;6177090;23;20428;-82
2022/04/09 13:14:21;;;;;;;2.17;1.90;;;15.20;48.60;;;;;;6148758;23;20943;-81
2022/04/09 13:17:10;;;;;;;2.33;2.10;;;15.20;49.00;;;;;;6178867;23;20430;-84
2022/04/09 13:19:50;;;;;;;4.73;2.07;;;15.00;49.20;;;;;;6157790;23;20421;-82
2022/04/09 13:22:41;;;;;;;;;;;;;;;;;;;;;
2022/04/09 13:29:56;;;;;;;;;;;;;;;;;;;;;
2022/04/09 13:33:02;;;;;;;5.80;2.13;;;14.40;51.30;;;;;;6197324;23;20408;-83
2022/04/09 13:36:13;;;;;;;3.53;1.97;;;13.80;51.20;;;;;;6166733;23;20457;-81
2022/04/09 13:39:07;;;;;;;2.00;1.80;;;13.40;54.90;;;;;;6204616;23;20413;-83
2022/04/09 13:42:04;;;;;;;3.20;1.70;;;13.20;55.70;;;;;;6180681;23;20417;-82
2022/04/09 13:44:40;;;;;;;3.13;2.40;;;13.20;54.00;;;;;;6160476;23;20456;-81
2022/04/09 13:47:47;;;;;;;3.40;1.50;;;13.70;54.10;;;;;;6118136;23;20557;-82
2022/04/09 13:50:22;;;;;;;2.90;1.60;;;14.00;51.40;;;;;;6182945;23;20445;-82